createdAt,value
2018-04-30T06:35:16.156Z,265
2018-04-30T06:35:28.874Z,265
2018-04-30T06:35:41.549Z,265
2018-04-30T06:35:54.048Z,265
2018-04-30T06:36:06.631Z,265
2018-04-30T06:36:19.271Z,265
2018-04-30T06:36:31.862Z,265
2018-04-30T06:36:44.461Z,265
2018-04-30T06:36:57.052Z,265
2018-04-30T06:37:09.671Z,265
2018-04-30T06:37:22.267Z,265
2018-04-30T06:37:34.859Z,265
2018-04-30T06:37:47.458Z,265
2018-04-30T06:38:00.056Z,265
2018-04-30T06:38:12.653Z,265
2018-04-30T06:38:25.264Z,265
2018-04-30T06:38:37.853Z,265
2018-04-30T06:38:50.451Z,260
2018-04-30T06:39:03.046Z,260
2018-04-30T06:39:15.632Z,260
2018-04-30T06:39:28.227Z,260
2018-04-30T06:39:40.824Z,260
2018-04-30T06:39:53.442Z,260
2018-04-30T06:40:06.057Z,260
2018-04-30T06:40:18.647Z,260
2018-04-30T06:40:31.243Z,260
2018-04-30T06:40:43.912Z,260
2018-04-30T06:40:56.444Z,260
2018-04-30T06:41:09.035Z,260
2018-04-30T06:41:21.637Z,260
2018-04-30T06:41:34.250Z,260
2018-04-30T06:41:46.846Z,255
2018-04-30T06:41:59.438Z,255
2018-04-30T06:42:12.032Z,255
2018-04-30T06:42:24.620Z,255
2018-04-30T06:42:37.220Z,255
2018-04-30T06:42:49.841Z,255
2018-04-30T06:43:02.454Z,255
2018-04-30T06:43:15.138Z,255
2018-04-30T06:43:27.711Z,255
2018-04-30T06:43:40.329Z,255
2018-04-30T06:43:52.921Z,255
2018-04-30T06:44:05.515Z,255
2018-04-30T06:44:18.087Z,255
2018-04-30T06:44:30.685Z,255
2018-04-30T06:44:43.283Z,255
2018-04-30T06:44:55.895Z,255
2018-04-30T06:45:08.496Z,255
2018-04-30T06:45:21.108Z,255
2018-04-30T06:45:33.700Z,255
2018-04-30T06:45:46.293Z,250
2018-04-30T06:45:58.884Z,255
2018-04-30T06:46:11.509Z,255
2018-04-30T06:46:24.127Z,250
2018-04-30T06:46:36.747Z,250
2018-04-30T06:46:49.336Z,255
2018-04-30T06:47:01.951Z,250
2018-04-30T06:47:14.546Z,250
2018-04-30T06:47:27.231Z,250
2018-04-30T06:47:39.760Z,250
2018-04-30T06:47:52.337Z,250
2018-04-30T06:48:04.929Z,250
2018-04-30T06:48:17.524Z,250
2018-04-30T06:48:30.138Z,250
2018-04-30T06:48:42.736Z,250
2018-04-30T06:48:55.356Z,250
2018-04-30T06:49:07.944Z,250
2018-04-30T06:49:20.539Z,250
2018-04-30T06:49:33.132Z,250
2018-04-30T06:49:45.733Z,250
2018-04-30T06:49:58.327Z,250
2018-04-30T06:50:10.924Z,250
2018-04-30T06:50:23.524Z,250
2018-04-30T06:50:36.113Z,250
2018-04-30T06:50:48.729Z,250
2018-04-30T06:51:01.322Z,250
2018-04-30T06:51:13.925Z,250
2018-04-30T06:51:26.520Z,250
2018-04-30T06:51:39.137Z,255
2018-04-30T06:51:51.754Z,250
2018-04-30T06:52:04.346Z,250
2018-04-30T06:52:16.941Z,250
2018-04-30T06:52:29.541Z,250
2018-04-30T06:52:42.134Z,250
2018-04-30T06:52:54.729Z,250
2018-04-30T06:53:07.328Z,250
2018-04-30T06:53:19.946Z,250
2018-04-30T06:53:32.604Z,250
2018-04-30T06:53:45.184Z,250
2018-04-30T06:53:57.816Z,250
2018-04-30T06:54:10.572Z,250
2018-04-30T06:54:23.266Z,250
2018-04-30T06:54:35.823Z,250
2018-04-30T06:54:48.419Z,250
2018-04-30T06:55:01.023Z,250
2018-04-30T06:55:13.881Z,250
2018-04-30T06:55:26.471Z,250
2018-04-30T06:55:39.097Z,250
2018-04-30T06:55:51.876Z,250
2018-04-30T06:56:04.472Z,250
2018-04-30T06:56:17.068Z,250
2018-04-30T06:56:29.690Z,250
2018-04-30T06:56:42.303Z,250
2018-04-30T06:56:54.943Z,250
2018-04-30T06:57:07.530Z,250
2018-04-30T06:57:20.134Z,250
2018-04-30T06:57:32.742Z,250
2018-04-30T06:57:45.335Z,250
2018-04-30T06:57:57.942Z,250
2018-04-30T06:58:10.582Z,250
2018-04-30T06:58:23.181Z,250
2018-04-30T06:58:35.797Z,250
2018-04-30T06:58:48.396Z,250
2018-04-30T06:59:00.973Z,250
2018-04-30T06:59:13.572Z,250
2018-04-30T06:59:26.188Z,250
2018-04-30T06:59:38.779Z,250
2018-04-30T06:59:51.379Z,250
2018-04-30T07:00:03.970Z,250
2018-04-30T07:00:16.610Z,250
2018-04-30T07:00:29.166Z,250
2018-04-30T07:00:41.762Z,250
2018-04-30T07:00:54.377Z,250
2018-04-30T07:01:07.033Z,250
2018-04-30T07:01:19.585Z,250
2018-04-30T07:01:32.180Z,250
2018-04-30T07:01:44.775Z,250
2018-04-30T07:01:57.366Z,250
2018-04-30T07:02:09.962Z,250
2018-04-30T07:02:22.554Z,250
2018-04-30T07:02:35.153Z,250
2018-04-30T07:02:47.749Z,250
2018-04-30T07:03:00.425Z,250
2018-04-30T07:03:13.037Z,250
2018-04-30T07:03:25.661Z,250
2018-04-30T07:03:38.271Z,250
2018-04-30T07:03:50.865Z,250
2018-04-30T07:04:03.482Z,250
2018-04-30T07:04:16.080Z,255
2018-04-30T07:04:28.695Z,250
2018-04-30T07:04:41.289Z,250
2018-04-30T07:04:53.892Z,250
2018-04-30T07:05:06.509Z,250
2018-04-30T07:05:19.124Z,250
2018-04-30T07:05:31.725Z,250
2018-04-30T07:05:44.334Z,250
2018-04-30T07:05:56.933Z,250
2018-04-30T07:06:09.529Z,250
2018-04-30T07:06:22.147Z,250
2018-04-30T07:06:34.741Z,250
2018-04-30T07:06:47.335Z,250
2018-04-30T07:06:59.927Z,250
2018-04-30T07:07:12.522Z,250
2018-04-30T07:07:25.141Z,250
2018-04-30T07:07:37.735Z,250
2018-04-30T07:07:50.328Z,250
2018-04-30T07:08:02.941Z,250
2018-04-30T07:08:15.538Z,250
2018-04-30T07:08:28.135Z,250
2018-04-30T07:08:40.725Z,250
2018-04-30T07:08:53.374Z,250
2018-04-30T07:09:06.053Z,245
2018-04-30T07:09:18.706Z,250
2018-04-30T07:09:31.412Z,245
2018-04-30T07:09:43.899Z,250
2018-04-30T07:09:56.434Z,250
2018-04-30T07:10:09.029Z,245
2018-04-30T07:10:21.622Z,245
2018-04-30T07:10:34.215Z,245
2018-04-30T07:10:46.810Z,245
2018-04-30T07:10:59.403Z,245
2018-04-30T07:11:12.019Z,245
2018-04-30T07:11:24.597Z,245
2018-04-30T07:11:37.188Z,245
2018-04-30T07:11:49.806Z,245
2018-04-30T07:12:02.403Z,250
2018-04-30T07:12:15.018Z,245
2018-04-30T07:12:27.589Z,250
2018-04-30T07:12:40.203Z,245
2018-04-30T07:12:52.799Z,245
2018-04-30T07:13:05.388Z,245
2018-04-30T07:13:17.980Z,245
2018-04-30T07:13:30.579Z,245
2018-04-30T07:13:43.174Z,245
2018-04-30T07:13:55.764Z,245
2018-04-30T07:14:08.381Z,245
2018-04-30T07:14:20.979Z,245
2018-04-30T07:14:33.598Z,245
2018-04-30T07:14:46.215Z,245
2018-04-30T07:14:58.813Z,245
2018-04-30T07:15:11.429Z,245
2018-04-30T07:15:24.026Z,245
2018-04-30T07:15:36.645Z,245
2018-04-30T07:15:49.236Z,245
2018-04-30T07:16:01.838Z,245
2018-04-30T07:16:14.446Z,245
2018-04-30T07:16:27.045Z,245
2018-04-30T07:16:39.636Z,245
2018-04-30T07:16:52.230Z,245
2018-04-30T07:17:04.842Z,245
2018-04-30T07:17:17.438Z,245
2018-04-30T07:17:30.113Z,245
2018-04-30T07:17:42.720Z,245
2018-04-30T07:17:55.314Z,245
2018-04-30T07:18:07.910Z,245
2018-04-30T07:18:20.508Z,245
2018-04-30T07:18:33.101Z,245
2018-04-30T07:18:45.696Z,245
2018-04-30T07:18:58.287Z,245
2018-04-30T07:19:10.883Z,245
2018-04-30T07:19:23.496Z,245
2018-04-30T07:19:36.094Z,245
2018-04-30T07:19:48.714Z,245
2018-04-30T07:20:01.387Z,245
2018-04-30T07:20:13.900Z,245
2018-04-30T07:20:26.498Z,245
2018-04-30T07:20:39.097Z,245
2018-04-30T07:20:51.704Z,245
2018-04-30T07:21:04.301Z,245
2018-04-30T07:21:16.903Z,245
2018-04-30T07:21:29.490Z,245
2018-04-30T07:21:42.085Z,245
2018-04-30T07:21:54.662Z,245
2018-04-30T07:22:07.275Z,245
2018-04-30T07:22:19.890Z,245
2018-04-30T07:22:32.484Z,245
2018-04-30T07:22:45.102Z,245
2018-04-30T07:22:57.700Z,245
2018-04-30T07:23:10.316Z,245
2018-04-30T07:23:23.026Z,245
2018-04-30T07:23:35.647Z,245
2018-04-30T07:23:48.282Z,245
2018-04-30T07:24:00.949Z,245
2018-04-30T07:24:13.757Z,245
2018-04-30T07:24:26.349Z,245
2018-04-30T07:24:38.947Z,245
2018-04-30T07:24:51.562Z,245
2018-04-30T07:25:04.156Z,245
2018-04-30T07:25:16.751Z,245
2018-04-30T07:25:29.367Z,245
2018-04-30T07:25:41.961Z,245
2018-04-30T07:25:54.559Z,245
2018-04-30T07:26:07.157Z,245
2018-04-30T07:26:19.752Z,245
2018-04-30T07:26:32.348Z,245
2018-04-30T07:26:44.942Z,245
2018-04-30T07:26:57.567Z,245
2018-04-30T07:27:10.154Z,245
2018-04-30T07:27:22.743Z,245
2018-04-30T07:27:35.418Z,245
2018-04-30T07:27:48.040Z,245
2018-04-30T07:28:00.564Z,245
2018-04-30T07:28:13.161Z,245
2018-04-30T07:28:25.749Z,245
2018-04-30T07:28:38.340Z,245
2018-04-30T07:28:50.940Z,245
2018-04-30T07:29:03.555Z,245
2018-04-30T07:29:16.150Z,245
2018-04-30T07:29:28.759Z,245
2018-04-30T07:29:41.356Z,245
2018-04-30T07:29:53.974Z,245
2018-04-30T07:30:06.593Z,245
2018-04-30T07:30:19.190Z,245
2018-04-30T07:30:31.789Z,245
2018-04-30T07:30:44.382Z,240
2018-04-30T07:30:56.977Z,240
2018-04-30T07:31:09.596Z,240
2018-04-30T07:31:22.218Z,240
2018-04-30T07:31:34.809Z,240
2018-04-30T07:31:47.427Z,240
2018-04-30T07:32:00.018Z,240
2018-04-30T07:32:12.613Z,240
2018-04-30T07:32:25.191Z,240
2018-04-30T07:32:37.811Z,240
2018-04-30T07:32:50.429Z,240
2018-04-30T07:33:03.046Z,240
2018-04-30T07:33:15.686Z,240
2018-04-30T07:33:28.247Z,240
2018-04-30T07:33:40.839Z,240
2018-04-30T07:33:53.440Z,240
2018-04-30T07:34:06.036Z,240
2018-04-30T07:34:18.631Z,240
2018-04-30T07:34:31.244Z,240
2018-04-30T07:34:43.836Z,240
2018-04-30T07:34:56.426Z,240
2018-04-30T07:35:09.024Z,240
2018-04-30T07:35:21.615Z,240
2018-04-30T07:35:34.206Z,240
2018-04-30T07:35:47.251Z,240
2018-04-30T07:35:59.865Z,240
2018-04-30T07:36:12.454Z,240
2018-04-30T07:36:25.048Z,240
2018-04-30T07:36:37.641Z,240
2018-04-30T07:36:50.238Z,240
2018-04-30T07:37:02.853Z,240
2018-04-30T07:37:15.449Z,240
2018-04-30T07:37:28.066Z,240
2018-04-30T07:37:40.677Z,240
2018-04-30T07:37:53.272Z,240
2018-04-30T07:38:05.870Z,240
2018-04-30T07:38:18.464Z,240
2018-04-30T07:38:31.062Z,240
2018-04-30T07:38:43.655Z,240
2018-04-30T07:38:56.250Z,240
2018-04-30T07:39:08.852Z,240
2018-04-30T07:39:21.443Z,240
2018-04-30T07:39:34.039Z,240
2018-04-30T07:39:46.658Z,240
2018-04-30T07:39:59.247Z,240
2018-04-30T07:40:11.846Z,240
2018-04-30T07:40:24.435Z,240
2018-04-30T07:40:37.030Z,240
2018-04-30T07:40:49.624Z,240
2018-04-30T07:41:02.220Z,240
2018-04-30T07:41:14.813Z,240
2018-04-30T07:41:27.407Z,240
2018-04-30T07:41:40.002Z,240
2018-04-30T07:41:52.601Z,240
2018-04-30T07:42:05.217Z,240
2018-04-30T07:42:17.839Z,240
2018-04-30T07:42:30.430Z,240
2018-04-30T07:42:43.024Z,240
2018-04-30T07:42:55.621Z,240
2018-04-30T07:43:08.215Z,240
2018-04-30T07:43:20.806Z,240
2018-04-30T07:43:33.407Z,240
2018-04-30T07:43:46.004Z,240
2018-04-30T07:43:58.596Z,240
2018-04-30T07:44:11.187Z,240
2018-04-30T07:44:23.784Z,240
2018-04-30T07:44:36.404Z,240
2018-04-30T07:44:49.020Z,240
2018-04-30T07:45:01.640Z,245
2018-04-30T07:45:14.254Z,240
2018-04-30T07:45:26.852Z,235
2018-04-30T07:45:39.449Z,235
2018-04-30T07:45:52.044Z,240
2018-04-30T07:46:04.640Z,240
2018-04-30T07:46:17.233Z,235
2018-04-30T07:46:29.832Z,235
2018-04-30T07:46:42.444Z,235
2018-04-30T07:46:55.041Z,240
2018-04-30T07:47:07.707Z,235
2018-04-30T07:47:20.303Z,235
2018-04-30T07:47:32.896Z,235
2018-04-30T07:47:45.509Z,235
2018-04-30T07:47:58.104Z,235
2018-04-30T07:48:10.694Z,235
2018-04-30T07:48:23.293Z,235
2018-04-30T07:48:35.887Z,235
2018-04-30T07:48:48.499Z,235
2018-04-30T07:49:01.092Z,235
2018-04-30T07:49:13.695Z,235
2018-04-30T07:49:26.281Z,235
2018-04-30T07:49:38.891Z,235
2018-04-30T07:49:51.489Z,235
2018-04-30T07:50:04.108Z,235
2018-04-30T07:50:16.768Z,240
2018-04-30T07:50:29.399Z,235
2018-04-30T07:50:41.993Z,235
2018-04-30T07:50:54.609Z,235
2018-04-30T07:51:07.230Z,235
2018-04-30T07:51:19.844Z,235
2018-04-30T07:51:32.447Z,240
2018-04-30T07:51:45.062Z,240
2018-04-30T07:51:57.657Z,235
2018-04-30T07:52:10.271Z,235
2018-04-30T07:52:22.865Z,240
2018-04-30T07:52:35.460Z,235
2018-04-30T07:52:48.060Z,235
2018-04-30T07:53:00.647Z,235
2018-04-30T07:53:13.226Z,235
2018-04-30T07:53:25.844Z,235
2018-04-30T07:53:38.463Z,235
2018-04-30T07:53:51.079Z,235
2018-04-30T07:54:03.673Z,240
2018-04-30T07:54:16.272Z,240
2018-04-30T07:54:28.934Z,235
2018-04-30T07:54:41.515Z,235
2018-04-30T07:54:54.073Z,230
2018-04-30T07:55:06.669Z,230
2018-04-30T07:55:19.267Z,230
2018-04-30T07:55:31.857Z,230
2018-04-30T07:55:44.451Z,230
2018-04-30T07:55:57.043Z,230
2018-04-30T07:56:09.633Z,230
2018-04-30T07:56:22.225Z,230
2018-04-30T07:56:34.819Z,230
2018-04-30T07:56:47.419Z,230
2018-04-30T07:57:00.040Z,230
2018-04-30T07:57:12.665Z,230
2018-04-30T07:57:25.247Z,230
2018-04-30T07:57:37.849Z,230
2018-04-30T07:57:50.442Z,230
2018-04-30T07:58:03.038Z,230
2018-04-30T07:58:15.633Z,230
2018-04-30T07:58:28.226Z,230
2018-04-30T07:58:40.823Z,230
2018-04-30T07:58:53.417Z,230
2018-04-30T07:59:06.009Z,230
2018-04-30T07:59:18.671Z,230
2018-04-30T07:59:31.320Z,230
2018-04-30T07:59:43.907Z,230
2018-04-30T07:59:56.509Z,230
2018-04-30T08:00:09.105Z,230
2018-04-30T08:00:21.723Z,230
2018-04-30T08:00:34.325Z,230
2018-04-30T08:00:46.912Z,230
2018-04-30T08:00:59.507Z,230
2018-04-30T08:01:12.098Z,230
2018-04-30T08:01:24.697Z,230
2018-04-30T08:01:37.296Z,230
2018-04-30T08:01:49.905Z,230
2018-04-30T08:02:02.497Z,230
2018-04-30T08:02:15.089Z,230
2018-04-30T08:02:27.680Z,230
2018-04-30T08:02:40.280Z,230
2018-04-30T08:02:52.893Z,230
2018-04-30T08:03:05.565Z,230
2018-04-30T08:03:18.081Z,230
2018-04-30T08:03:30.705Z,230
2018-04-30T08:03:43.319Z,230
2018-04-30T08:03:55.934Z,230
2018-04-30T08:04:08.527Z,230
2018-04-30T08:04:21.129Z,230
2018-04-30T08:04:33.744Z,230
2018-04-30T08:04:46.335Z,230
2018-04-30T08:04:58.935Z,230
2018-04-30T08:05:11.530Z,230
2018-04-30T08:05:24.120Z,230
2018-04-30T08:05:36.718Z,230
2018-04-30T08:05:49.335Z,230
2018-04-30T08:06:01.933Z,230
2018-04-30T08:06:14.532Z,225
2018-04-30T08:06:27.125Z,225
2018-04-30T08:06:39.721Z,230
2018-04-30T08:06:52.311Z,230
2018-04-30T08:07:04.907Z,230
2018-04-30T08:07:17.500Z,235
2018-04-30T08:07:30.095Z,230
2018-04-30T08:07:42.688Z,230
2018-04-30T08:07:55.281Z,230
2018-04-30T08:08:07.874Z,230
2018-04-30T08:08:20.473Z,230
2018-04-30T08:08:33.073Z,230
2018-04-30T08:08:45.888Z,230
2018-04-30T08:08:58.507Z,230
2018-04-30T08:09:11.179Z,230
2018-04-30T08:09:23.721Z,230
2018-04-30T08:09:36.373Z,230
2018-04-30T08:09:48.971Z,230
2018-04-30T08:10:01.559Z,230
2018-04-30T08:10:14.160Z,230
2018-04-30T08:10:26.744Z,225
2018-04-30T08:10:39.342Z,225
2018-04-30T08:10:51.941Z,225
2018-04-30T08:11:04.543Z,225
2018-04-30T08:11:17.158Z,230
2018-04-30T08:11:29.751Z,230
2018-04-30T08:11:42.406Z,235
2018-04-30T08:11:54.993Z,230
2018-04-30T08:12:07.589Z,230
2018-04-30T08:12:20.180Z,235
2018-04-30T08:12:32.777Z,235
2018-04-30T08:12:45.379Z,230
2018-04-30T08:12:57.998Z,230
2018-04-30T08:13:10.594Z,235
2018-04-30T08:13:23.208Z,235
2018-04-30T08:13:35.799Z,235
2018-04-30T08:13:48.395Z,235
2018-04-30T08:14:00.994Z,240
2018-04-30T08:14:13.587Z,240
2018-04-30T08:14:26.240Z,240
2018-04-30T08:14:38.831Z,240
2018-04-30T08:14:51.507Z,240
2018-04-30T08:15:04.022Z,245
2018-04-30T08:15:16.639Z,245
2018-04-30T08:15:29.260Z,245
2018-04-30T08:15:41.899Z,245
2018-04-30T08:15:54.497Z,245
2018-04-30T08:16:07.077Z,250
2018-04-30T08:16:19.670Z,250
2018-04-30T08:16:32.265Z,250
2018-04-30T08:16:44.866Z,250
2018-04-30T08:16:57.463Z,255
2018-04-30T08:17:10.060Z,255
2018-04-30T08:17:22.649Z,255
2018-04-30T08:17:35.244Z,260
2018-04-30T08:17:47.844Z,260
2018-04-30T08:18:00.454Z,260
2018-04-30T08:18:13.051Z,260
2018-04-30T08:18:25.666Z,265
2018-04-30T08:18:38.286Z,265
2018-04-30T08:18:50.881Z,265
2018-04-30T08:19:03.496Z,265
2018-04-30T08:19:16.085Z,265
2018-04-30T08:19:28.687Z,265
2018-04-30T08:19:41.271Z,265
2018-04-30T08:19:53.877Z,265
2018-04-30T08:20:06.495Z,265
2018-04-30T08:20:19.089Z,265
2018-04-30T08:20:31.682Z,265
2018-04-30T08:20:44.292Z,265
2018-04-30T08:20:56.893Z,265
2018-04-30T08:21:09.488Z,265
2018-04-30T08:21:22.086Z,265
2018-04-30T08:21:34.688Z,265
2018-04-30T08:21:47.276Z,265
2018-04-30T08:21:59.869Z,265
2018-04-30T08:22:12.542Z,265
2018-04-30T08:22:25.145Z,260
2018-04-30T08:22:37.742Z,260
2018-04-30T08:22:50.363Z,260
2018-04-30T08:23:02.956Z,260
2018-04-30T08:23:15.533Z,255
2018-04-30T08:23:28.140Z,255
2018-04-30T08:23:40.725Z,255
2018-04-30T08:23:53.316Z,255
2018-04-30T08:24:05.909Z,250
2018-04-30T08:24:18.510Z,250
2018-04-30T08:24:31.125Z,250
2018-04-30T08:24:43.736Z,250
2018-04-30T08:24:56.331Z,250
2018-04-30T08:25:08.923Z,250
2018-04-30T08:25:21.518Z,245
2018-04-30T08:25:34.116Z,245
2018-04-30T08:25:46.730Z,250
2018-04-30T08:25:59.345Z,250
2018-04-30T08:26:11.997Z,250
2018-04-30T08:26:24.591Z,250
2018-04-30T08:26:37.212Z,245
2018-04-30T08:26:49.831Z,245
2018-04-30T08:27:02.429Z,245
2018-04-30T08:27:15.042Z,245
2018-04-30T08:27:27.640Z,245
2018-04-30T08:27:40.223Z,245
2018-04-30T08:27:52.822Z,245
2018-04-30T08:28:05.440Z,245
2018-04-30T08:28:18.038Z,245
2018-04-30T08:28:30.662Z,245
2018-04-30T08:28:43.273Z,245
2018-04-30T08:28:55.868Z,245
2018-04-30T08:29:08.463Z,245
2018-04-30T08:29:21.053Z,245
2018-04-30T08:29:33.652Z,245
2018-04-30T08:29:46.270Z,245
2018-04-30T08:29:58.851Z,250
2018-04-30T08:30:11.438Z,250
2018-04-30T08:30:24.053Z,250
2018-04-30T08:30:36.644Z,250
2018-04-30T08:30:49.235Z,250
2018-04-30T08:31:01.831Z,250
2018-04-30T08:31:14.448Z,250
2018-04-30T08:31:27.047Z,250
2018-04-30T08:31:39.632Z,250
2018-04-30T08:31:52.249Z,250
2018-04-30T08:32:04.871Z,250
2018-04-30T08:32:17.464Z,255
2018-04-30T08:32:30.059Z,255
2018-04-30T08:32:42.657Z,255
2018-04-30T08:32:55.254Z,255
2018-04-30T08:33:07.846Z,260
2018-04-30T08:33:20.441Z,260
2018-04-30T08:33:33.040Z,260
2018-04-30T08:33:45.631Z,260
2018-04-30T08:33:58.233Z,260
2018-04-30T08:34:10.843Z,260
2018-04-30T08:34:23.446Z,260
2018-04-30T08:34:36.034Z,260
2018-04-30T08:34:48.628Z,260
2018-04-30T08:35:01.225Z,265
2018-04-30T08:35:13.843Z,265
2018-04-30T08:35:26.438Z,265
2018-04-30T08:35:39.051Z,265
2018-04-30T08:35:51.648Z,265
2018-04-30T08:36:04.241Z,265
2018-04-30T08:36:16.842Z,265
2018-04-30T08:36:29.460Z,265
2018-04-30T08:36:42.092Z,265
2018-04-30T08:36:54.668Z,265
2018-04-30T08:37:07.283Z,265
2018-04-30T08:37:19.889Z,265
2018-04-30T08:37:32.503Z,265
2018-04-30T08:37:45.102Z,265
2018-04-30T08:37:57.719Z,265
2018-04-30T08:38:10.310Z,265
2018-04-30T08:38:22.910Z,265
2018-04-30T08:38:35.499Z,265
2018-04-30T08:38:48.116Z,265
2018-04-30T08:39:00.711Z,265
2018-04-30T08:39:13.359Z,265
2018-04-30T08:39:25.981Z,265
2018-04-30T08:39:38.568Z,270
2018-04-30T08:39:51.165Z,270
2018-04-30T08:40:03.759Z,265
2018-04-30T08:40:16.349Z,270
2018-04-30T08:40:28.947Z,265
2018-04-30T08:40:41.568Z,265
2018-04-30T08:40:54.184Z,265
2018-04-30T08:41:06.758Z,265
2018-04-30T08:41:19.357Z,265
2018-04-30T08:41:31.975Z,265
2018-04-30T08:41:44.579Z,270
2018-04-30T08:41:57.191Z,265
2018-04-30T08:42:09.791Z,265
2018-04-30T08:42:22.381Z,265
2018-04-30T08:42:34.980Z,265
2018-04-30T08:42:47.594Z,265
2018-04-30T08:43:00.211Z,265
2018-04-30T08:43:12.804Z,265
2018-04-30T08:43:25.396Z,265
2018-04-30T08:43:38.003Z,265
2018-04-30T08:43:50.589Z,265
2018-04-30T08:44:03.189Z,265
2018-04-30T08:44:15.827Z,265
2018-04-30T08:44:28.426Z,265
2018-04-30T08:44:41.019Z,265
2018-04-30T08:44:53.622Z,265
2018-04-30T08:45:06.254Z,260
2018-04-30T08:45:18.801Z,260
2018-04-30T08:45:31.397Z,260
2018-04-30T08:45:43.985Z,260
2018-04-30T08:45:56.580Z,260
2018-04-30T08:46:09.177Z,265
2018-04-30T08:46:21.798Z,260
2018-04-30T08:46:34.413Z,260
2018-04-30T08:46:47.234Z,260
2018-04-30T08:46:59.825Z,260
2018-04-30T08:47:12.426Z,260
2018-04-30T08:47:25.025Z,260
2018-04-30T08:47:37.612Z,255
2018-04-30T08:47:50.210Z,255
2018-04-30T08:48:02.805Z,255
2018-04-30T08:48:15.401Z,255
2018-04-30T08:48:27.997Z,255
2018-04-30T08:48:40.616Z,255
2018-04-30T08:48:53.214Z,255
2018-04-30T08:49:05.825Z,255
2018-04-30T08:49:18.429Z,255
2018-04-30T08:49:31.046Z,255
2018-04-30T08:49:43.643Z,255
2018-04-30T08:49:56.247Z,255
2018-04-30T08:50:08.831Z,250
2018-04-30T08:50:21.429Z,250
2018-04-30T08:50:34.020Z,250
2018-04-30T08:50:46.639Z,250
2018-04-30T08:50:59.230Z,250
2018-04-30T08:51:11.822Z,250
2018-04-30T08:51:24.421Z,250
2018-04-30T08:51:37.014Z,255
2018-04-30T08:51:49.612Z,250
2018-04-30T08:52:02.210Z,250
2018-04-30T08:52:14.806Z,255
2018-04-30T08:52:27.400Z,250
2018-04-30T08:52:39.995Z,250
2018-04-30T08:52:52.585Z,250
2018-04-30T08:53:05.177Z,250
2018-04-30T08:53:17.775Z,250
2018-04-30T08:53:30.392Z,250
2018-04-30T08:53:42.994Z,255
2018-04-30T08:53:55.584Z,250
2018-04-30T08:54:08.201Z,250
2018-04-30T08:54:20.817Z,250
2018-04-30T08:54:33.421Z,250
2018-04-30T08:54:46.009Z,250
2018-04-30T08:54:58.604Z,250
2018-04-30T08:55:11.208Z,250
2018-04-30T08:55:23.800Z,250
2018-04-30T08:55:36.392Z,250
2018-04-30T08:55:48.989Z,250
2018-04-30T08:56:01.582Z,250
2018-04-30T08:56:14.185Z,250
2018-04-30T08:56:26.797Z,250
2018-04-30T08:56:39.390Z,250
2018-04-30T08:56:51.985Z,250
2018-04-30T08:57:04.586Z,250
2018-04-30T08:57:17.182Z,250
2018-04-30T08:57:29.773Z,250
2018-04-30T08:57:42.373Z,250
2018-04-30T08:57:54.988Z,250
2018-04-30T08:58:07.583Z,250
2018-04-30T08:58:20.178Z,250
2018-04-30T08:58:32.773Z,250
2018-04-30T08:58:45.367Z,250
2018-04-30T08:58:57.963Z,250
2018-04-30T08:59:10.582Z,250
2018-04-30T08:59:23.195Z,250
2018-04-30T08:59:35.796Z,250
2018-04-30T08:59:48.393Z,250
2018-04-30T09:00:00.985Z,250
2018-04-30T09:00:13.581Z,250
2018-04-30T09:00:26.250Z,255
2018-04-30T09:00:38.775Z,255
2018-04-30T09:00:51.414Z,255
2018-04-30T09:01:04.007Z,255
2018-04-30T09:01:16.931Z,255
2018-04-30T09:01:30.201Z,255
2018-04-30T09:01:42.769Z,255
2018-04-30T09:01:55.902Z,255
2018-04-30T09:02:08.873Z,255
2018-04-30T09:02:22.220Z,255
2018-04-30T09:02:34.792Z,255
2018-04-30T09:02:48.047Z,255
2018-04-30T09:03:00.843Z,250
2018-04-30T09:03:13.874Z,255
2018-04-30T09:03:27.014Z,255
2018-04-30T09:03:40.109Z,255
2018-04-30T09:03:52.696Z,255
2018-04-30T09:04:05.357Z,255
2018-04-30T09:04:17.949Z,255
2018-04-30T09:04:30.550Z,255
2018-04-30T09:04:43.167Z,255
2018-04-30T09:04:55.767Z,255
2018-04-30T09:05:08.377Z,255
2018-04-30T09:05:20.977Z,255
2018-04-30T09:05:33.591Z,255
2018-04-30T09:05:46.189Z,260
2018-04-30T09:05:58.808Z,255
2018-04-30T09:06:11.445Z,255
2018-04-30T09:06:24.061Z,255
2018-04-30T09:06:36.671Z,260
2018-04-30T09:06:49.275Z,255
2018-04-30T09:07:01.896Z,255
2018-04-30T09:07:14.491Z,255
2018-04-30T09:07:27.083Z,255
2018-04-30T09:07:39.702Z,260
2018-04-30T09:07:52.296Z,260
2018-04-30T09:08:04.894Z,260
2018-04-30T09:08:17.771Z,260
2018-04-30T09:08:30.419Z,265
2018-04-30T09:08:43.038Z,265
2018-04-30T09:08:55.649Z,265
2018-04-30T09:09:08.242Z,265
2018-04-30T09:09:20.840Z,270
2018-04-30T09:09:33.468Z,270
2018-04-30T09:09:46.149Z,270
2018-04-30T09:09:58.626Z,270
2018-04-30T09:10:11.223Z,275
2018-04-30T09:10:23.816Z,275
2018-04-30T09:10:36.413Z,275
2018-04-30T09:10:49.031Z,275
2018-04-30T09:11:01.624Z,275
2018-04-30T09:11:14.599Z,275
2018-04-30T09:11:27.168Z,280
2018-04-30T09:11:39.829Z,280
2018-04-30T09:11:52.359Z,280
2018-04-30T09:12:04.951Z,280
2018-04-30T09:12:17.558Z,280
2018-04-30T09:12:30.178Z,285
2018-04-30T09:12:42.789Z,285
2018-04-30T09:12:55.411Z,285
2018-04-30T09:13:08.011Z,290
2018-04-30T09:13:20.623Z,295
2018-04-30T09:13:33.205Z,290
2018-04-30T09:13:45.800Z,295
2018-04-30T09:13:58.393Z,295
2018-04-30T09:14:11.013Z,300
2018-04-30T09:14:23.608Z,300
2018-04-30T09:14:36.257Z,305
2018-04-30T09:14:48.856Z,310
2018-04-30T09:15:01.507Z,310
2018-04-30T09:15:14.042Z,315
2018-04-30T09:15:26.635Z,320
2018-04-30T09:15:39.254Z,320
2018-04-30T09:15:51.841Z,320
2018-04-30T09:16:04.440Z,325
2018-04-30T09:16:17.058Z,325
2018-04-30T09:16:29.679Z,325
2018-04-30T09:16:42.298Z,330
2018-04-30T09:16:54.891Z,330
2018-04-30T09:17:07.469Z,335
2018-04-30T09:17:20.069Z,335
2018-04-30T09:17:32.687Z,340
2018-04-30T09:17:45.303Z,340
2018-04-30T09:17:57.904Z,345
2018-04-30T09:18:10.518Z,345
2018-04-30T09:18:23.114Z,345
2018-04-30T09:18:35.712Z,345
2018-04-30T09:18:48.328Z,345
2018-04-30T09:19:00.944Z,350
2018-04-30T09:19:13.544Z,350
2018-04-30T09:19:26.137Z,355
2018-04-30T09:19:38.732Z,350
2018-04-30T09:19:51.328Z,355
2018-04-30T09:20:03.920Z,355
2018-04-30T09:20:16.514Z,355
2018-04-30T09:20:29.115Z,360
2018-04-30T09:20:41.711Z,360
2018-04-30T09:20:54.298Z,360
2018-04-30T09:21:06.874Z,370
2018-04-30T09:21:19.473Z,365
2018-04-30T09:21:32.088Z,370
2018-04-30T09:21:44.709Z,370
2018-04-30T09:21:57.300Z,375
2018-04-30T09:22:09.895Z,385
2018-04-30T09:22:22.493Z,385
2018-04-30T09:22:35.088Z,385
2018-04-30T09:22:47.687Z,390
2018-04-30T09:23:00.281Z,395
2018-04-30T09:23:12.878Z,400
2018-04-30T09:23:25.472Z,400
2018-04-30T09:23:38.069Z,405
2018-04-30T09:23:50.765Z,400
2018-04-30T09:24:03.286Z,405
2018-04-30T09:24:15.886Z,405
2018-04-30T09:24:28.502Z,410
2018-04-30T09:24:41.091Z,410
2018-04-30T09:24:53.687Z,410
2018-04-30T09:25:06.285Z,410
2018-04-30T09:25:18.888Z,415
2018-04-30T09:25:31.507Z,415
2018-04-30T09:25:44.120Z,410
2018-04-30T09:25:56.752Z,420
2018-04-30T09:26:09.373Z,415
2018-04-30T09:26:21.986Z,415
2018-04-30T09:26:34.606Z,415
2018-04-30T09:26:47.251Z,420
2018-04-30T09:26:59.855Z,420
2018-04-30T09:27:12.470Z,420
2018-04-30T09:27:25.085Z,420
2018-04-30T09:27:37.690Z,425
2018-04-30T09:27:50.279Z,420
2018-04-30T09:28:02.909Z,425
2018-04-30T09:28:15.565Z,425
2018-04-30T09:28:28.093Z,430
2018-04-30T09:28:40.708Z,430
2018-04-30T09:28:53.320Z,430